sensor_id;sensor_type;location;lat;lon;timestamp;temperature;humidity
3017;DHT22;1518;52.408;13.060;2022-10-26T00:01:05;10.60;99.90
3017;DHT22;1518;52.408;13.060;2022-10-26T00:03:55;10.60;99.90
3017;DHT22;1518;52.408;13.060;2022-10-26T00:06:43;10.60;99.90
3017;DHT22;1518;52.408;13.060;2022-10-26T00:09:31;10.50;99.90
3017;DHT22;1518;52.408;13.060;2022-10-26T00:12:19;10.50;99.90
3017;DHT22;1518;52.408;13.060;2022-10-26T00:15:08;10.50;99.90
3017;DHT22;1518;52.408;13.060;2022-10-26T00:17:56;10.50;99.90
3017;DHT22;1518;52.408;13.060;2022-10-26T00:20:46;10.50;99.90
3017;DHT22;1518;52.408;13.060;2022-10-26T00:23:34;10.50;99.90
3017;DHT22;1518;52.408;13.060;2022-10-26T00:26:22;10.50;99.90
3017;DHT22;1518;52.408;13.060;2022-10-26T00:29:11;10.40;99.90
3017;DHT22;1518;52.408;13.060;2022-10-26T00:31:59;10.50;99.90
3017;DHT22;1518;52.408;13.060;2022-10-26T00:34:47;10.50;99.90
3017;DHT22;1518;52.408;13.060;2022-10-26T00:37:36;10.50;99.90
3017;DHT22;1518;52.408;13.060;2022-10-26T00:40:27;10.50;99.90
3017;DHT22;1518;52.408;13.060;2022-10-26T00:46:21;10.50;99.90
3017;DHT22;1518;52.408;13.060;2022-10-26T00:49:13;10.40;99.90
3017;DHT22;1518;52.408;13.060;2022-10-26T00:52:03;10.40;99.90
3017;DHT22;1518;52.408;13.060;2022-10-26T00:54:54;10.40;99.90
3017;DHT22;1518;52.408;13.060;2022-10-26T00:57:42;10.40;99.90
3017;DHT22;1518;52.408;13.060;2022-10-26T01:00:30;10.40;99.90
3017;DHT22;1518;52.408;13.060;2022-10-26T01:03:19;10.40;99.90
3017;DHT22;1518;52.408;13.060;2022-10-26T01:06:08;10.40;99.90
3017;DHT22;1518;52.408;13.060;2022-10-26T01:08:58;10.30;99.90
3017;DHT22;1518;52.408;13.060;2022-10-26T01:11:48;10.30;99.90
3017;DHT22;1518;52.408;13.060;2022-10-26T01:14:36;10.30;99.90
3017;DHT22;1518;52.408;13.060;2022-10-26T01:17:32;10.30;99.90
3017;DHT22;1518;52.408;13.060;2022-10-26T01:21:07;10.30;99.90
3017;DHT22;1518;52.408;13.060;2022-10-26T01:24:13;10.30;99.90
3017;DHT22;1518;52.408;13.060;2022-10-26T01:27:27;10.30;99.90
3017;DHT22;1518;52.408;13.060;2022-10-26T01:30:22;10.20;99.90
3017;DHT22;1518;52.408;13.060;2022-10-26T01:33:24;10.20;99.90
3017;DHT22;1518;52.408;13.060;2022-10-26T01:36:23;10.20;99.90
3017;DHT22;1518;52.408;13.060;2022-10-26T01:39:18;10.20;99.90
3017;DHT22;1518;52.408;13.060;2022-10-26T01:42:10;10.20;99.90
3017;DHT22;1518;52.408;13.060;2022-10-26T01:45:03;10.20;99.90
3017;DHT22;1518;52.408;13.060;2022-10-26T01:47:55;10.10;99.90
3017;DHT22;1518;52.408;13.060;2022-10-26T01:50:46;10.10;99.90
3017;DHT22;1518;52.408;13.060;2022-10-26T01:53:41;10.10;99.90
3017;DHT22;1518;52.408;13.060;2022-10-26T01:56:34;10.10;99.90
3017;DHT22;1518;52.408;13.060;2022-10-26T01:59:45;10.10;99.90
3017;DHT22;1518;52.408;13.060;2022-10-26T02:02:51;10.10;99.90
3017;DHT22;1518;52.408;13.060;2022-10-26T02:05:51;10.10;99.90
3017;DHT22;1518;52.408;13.060;2022-10-26T02:08:57;10.10;99.90
3017;DHT22;1518;52.408;13.060;2022-10-26T02:11:49;10.00;99.90
3017;DHT22;1518;52.408;13.060;2022-10-26T02:14:45;10.00;99.90
3017;DHT22;1518;52.408;13.060;2022-10-26T02:17:39;10.00;99.90
3017;DHT22;1518;52.408;13.060;2022-10-26T02:20:32;10.00;99.90
3017;DHT22;1518;52.408;13.060;2022-10-26T02:23:23;10.00;99.90
3017;DHT22;1518;52.408;13.060;2022-10-26T02:26:15;10.00;99.90
3017;DHT22;1518;52.408;13.060;2022-10-26T02:29:07;10.00;99.90
3017;DHT22;1518;52.408;13.060;2022-10-26T02:31:56;10.10;99.90
3017;DHT22;1518;52.408;13.060;2022-10-26T02:34:46;10.00;99.90
3017;DHT22;1518;52.408;13.060;2022-10-26T02:37:37;10.00;99.90
3017;DHT22;1518;52.408;13.060;2022-10-26T02:40:28;10.00;99.90
3017;DHT22;1518;52.408;13.060;2022-10-26T02:43:17;9.90;99.90
3017;DHT22;1518;52.408;13.060;2022-10-26T02:46:10;9.90;99.90
3017;DHT22;1518;52.408;13.060;2022-10-26T02:48:59;9.90;99.90
3017;DHT22;1518;52.408;13.060;2022-10-26T02:51:50;9.90;99.90
3017;DHT22;1518;52.408;13.060;2022-10-26T02:54:47;10.00;99.90
3017;DHT22;1518;52.408;13.060;2022-10-26T02:57:39;9.90;99.90
3017;DHT22;1518;52.408;13.060;2022-10-26T03:00:29;10.00;99.90
3017;DHT22;1518;52.408;13.060;2022-10-26T03:03:18;9.90;99.90
3017;DHT22;1518;52.408;13.060;2022-10-26T03:06:06;9.80;99.90
3017;DHT22;1518;52.408;13.060;2022-10-26T03:08:54;9.90;99.90
3017;DHT22;1518;52.408;13.060;2022-10-26T03:11:42;9.90;99.90
3017;DHT22;1518;52.408;13.060;2022-10-26T03:14:32;9.70;99.90
3017;DHT22;1518;52.408;13.060;2022-10-26T03:17:20;9.70;99.90
3017;DHT22;1518;52.408;13.060;2022-10-26T03:20:08;9.70;99.90
3017;DHT22;1518;52.408;13.060;2022-10-26T03:22:57;10.20;99.90
3017;DHT22;1518;52.408;13.060;2022-10-26T03:25:45;9.70;99.90
3017;DHT22;1518;52.408;13.060;2022-10-26T03:28:33;9.60;99.90
3017;DHT22;1518;52.408;13.060;2022-10-26T03:31:22;9.70;99.90
3017;DHT22;1518;52.408;13.060;2022-10-26T03:34:10;9.70;99.90
3017;DHT22;1518;52.408;13.060;2022-10-26T03:36:59;9.70;99.90
3017;DHT22;1518;52.408;13.060;2022-10-26T03:39:47;9.60;99.90
3017;DHT22;1518;52.408;13.060;2022-10-26T03:42:36;9.60;99.90
3017;DHT22;1518;52.408;13.060;2022-10-26T03:45:24;9.60;99.90
3017;DHT22;1518;52.408;13.060;2022-10-26T03:48:13;9.60;99.90
3017;DHT22;1518;52.408;13.060;2022-10-26T03:51:01;9.60;99.90
3017;DHT22;1518;52.408;13.060;2022-10-26T03:53:49;9.60;99.90
3017;DHT22;1518;52.408;13.060;2022-10-26T03:56:37;9.50;99.90
3017;DHT22;1518;52.408;13.060;2022-10-26T03:59:25;9.50;99.90
3017;DHT22;1518;52.408;13.060;2022-10-26T04:02:13;9.50;99.90
3017;DHT22;1518;52.408;13.060;2022-10-26T04:05:03;9.50;99.90
3017;DHT22;1518;52.408;13.060;2022-10-26T04:07:52;9.50;99.90
3017;DHT22;1518;52.408;13.060;2022-10-26T04:10:40;9.50;99.90
3017;DHT22;1518;52.408;13.060;2022-10-26T04:13:28;9.50;99.90
3017;DHT22;1518;52.408;13.060;2022-10-26T04:16:16;9.50;99.90
3017;DHT22;1518;52.408;13.060;2022-10-26T04:19:04;9.40;99.90
3017;DHT22;1518;52.408;13.060;2022-10-26T04:21:54;9.50;99.90
3017;DHT22;1518;52.408;13.060;2022-10-26T04:24:42;9.50;99.90
3017;DHT22;1518;52.408;13.060;2022-10-26T04:27:30;9.40;99.90
3017;DHT22;1518;52.408;13.060;2022-10-26T04:30:18;9.40;99.90
3017;DHT22;1518;52.408;13.060;2022-10-26T04:33:06;9.40;99.90
3017;DHT22;1518;52.408;13.060;2022-10-26T04:35:58;9.40;99.90
3017;DHT22;1518;52.408;13.060;2022-10-26T04:38:48;9.40;99.90
3017;DHT22;1518;52.408;13.060;2022-10-26T04:41:36;9.40;99.90
3017;DHT22;1518;52.408;13.060;2022-10-26T04:44:24;9.30;99.90
3017;DHT22;1518;52.408;13.060;2022-10-26T04:47:12;9.30;99.90
3017;DHT22;1518;52.408;13.060;2022-10-26T04:50:01;9.30;99.90
3017;DHT22;1518;52.408;13.060;2022-10-26T04:52:49;9.30;99.90
3017;DHT22;1518;52.408;13.060;2022-10-26T04:55:39;9.30;99.90
3017;DHT22;1518;52.408;13.060;2022-10-26T04:58:27;9.30;99.90
3017;DHT22;1518;52.408;13.060;2022-10-26T05:01:15;9.30;99.90
3017;DHT22;1518;52.408;13.060;2022-10-26T05:04:03;9.30;99.90
3017;DHT22;1518;52.408;13.060;2022-10-26T05:06:52;9.20;99.90
3017;DHT22;1518;52.408;13.060;2022-10-26T05:09:40;9.20;99.90
3017;DHT22;1518;52.408;13.060;2022-10-26T05:12:29;9.20;99.90
3017;DHT22;1518;52.408;13.060;2022-10-26T05:15:17;9.00;99.90
3017;DHT22;1518;52.408;13.060;2022-10-26T05:18:06;9.20;99.90
3017;DHT22;1518;52.408;13.060;2022-10-26T05:20:54;9.20;99.90
3017;DHT22;1518;52.408;13.060;2022-10-26T05:23:42;9.10;99.90
3017;DHT22;1518;52.408;13.060;2022-10-26T05:26:30;9.10;99.90
3017;DHT22;1518;52.408;13.060;2022-10-26T05:29:20;9.10;99.90
3017;DHT22;1518;52.408;13.060;2022-10-26T05:32:08;9.20;99.90
3017;DHT22;1518;52.408;13.060;2022-10-26T05:34:56;8.90;99.90
3017;DHT22;1518;52.408;13.060;2022-10-26T05:37:44;9.10;99.90
3017;DHT22;1518;52.408;13.060;2022-10-26T05:40:32;9.10;99.90
3017;DHT22;1518;52.408;13.060;2022-10-26T05:43:22;9.10;99.90
3017;DHT22;1518;52.408;13.060;2022-10-26T05:46:12;9.10;99.90
3017;DHT22;1518;52.408;13.060;2022-10-26T05:49:00;9.00;99.90
3017;DHT22;1518;52.408;13.060;2022-10-26T05:51:48;8.90;99.90
3017;DHT22;1518;52.408;13.060;2022-10-26T05:54:36;9.00;99.90
3017;DHT22;1518;52.408;13.060;2022-10-26T05:57:24;9.00;99.90
3017;DHT22;1518;52.408;13.060;2022-10-26T06:00:16;9.00;99.90
3017;DHT22;1518;52.408;13.060;2022-10-26T06:03:18;9.00;99.90
3017;DHT22;1518;52.408;13.060;2022-10-26T06:06:10;9.00;99.90
3017;DHT22;1518;52.408;13.060;2022-10-26T06:09:00;9.00;99.90
3017;DHT22;1518;52.408;13.060;2022-10-26T06:11:49;9.00;99.90
3017;DHT22;1518;52.408;13.060;2022-10-26T06:14:37;9.00;99.90
3017;DHT22;1518;52.408;13.060;2022-10-26T06:17:45;9.00;99.90
3017;DHT22;1518;52.408;13.060;2022-10-26T06:20:49;9.00;99.90
3017;DHT22;1518;52.408;13.060;2022-10-26T06:23:46;9.00;99.90
3017;DHT22;1518;52.408;13.060;2022-10-26T06:26:40;9.10;99.90
3017;DHT22;1518;52.408;13.060;2022-10-26T06:29:41;9.10;99.90
3017;DHT22;1518;52.408;13.060;2022-10-26T06:32:32;9.10;99.90
3017;DHT22;1518;52.408;13.060;2022-10-26T06:35:26;9.10;99.90
3017;DHT22;1518;52.408;13.060;2022-10-26T06:38:19;9.10;99.90
3017;DHT22;1518;52.408;13.060;2022-10-26T06:41:10;9.20;99.90
3017;DHT22;1518;52.408;13.060;2022-10-26T06:44:01;9.20;99.90
3017;DHT22;1518;52.408;13.060;2022-10-26T06:46:53;9.20;99.90
3017;DHT22;1518;52.408;13.060;2022-10-26T06:49:56;9.30;99.90
3017;DHT22;1518;52.408;13.060;2022-10-26T06:52:50;9.30;99.90
3017;DHT22;1518;52.408;13.060;2022-10-26T06:55:44;9.30;99.90
3017;DHT22;1518;52.408;13.060;2022-10-26T06:58:35;9.30;99.90
3017;DHT22;1518;52.408;13.060;2022-10-26T07:01:24;9.40;99.90
3017;DHT22;1518;52.408;13.060;2022-10-26T07:04:12;9.40;99.90
3017;DHT22;1518;52.408;13.060;2022-10-26T07:07:00;9.40;99.90
3017;DHT22;1518;52.408;13.060;2022-10-26T07:09:48;9.40;99.90
3017;DHT22;1518;52.408;13.060;2022-10-26T07:12:38;9.40;99.90
3017;DHT22;1518;52.408;13.060;2022-10-26T07:15:26;9.50;99.90
3017;DHT22;1518;52.408;13.060;2022-10-26T07:18:14;9.50;99.90
3017;DHT22;1518;52.408;13.060;2022-10-26T07:21:02;9.60;99.90
3017;DHT22;1518;52.408;13.060;2022-10-26T07:23:50;9.60;99.90
3017;DHT22;1518;52.408;13.060;2022-10-26T07:26:41;9.60;99.90
3017;DHT22;1518;52.408;13.060;2022-10-26T07:29:31;9.70;99.90
3017;DHT22;1518;52.408;13.060;2022-10-26T07:32:21;9.60;99.90
3017;DHT22;1518;52.408;13.060;2022-10-26T07:35:09;9.70;99.90
3017;DHT22;1518;52.408;13.060;2022-10-26T07:37:59;9.70;99.90
3017;DHT22;1518;52.408;13.060;2022-10-26T07:40:47;9.80;99.90
3017;DHT22;1518;52.408;13.060;2022-10-26T07:43:36;9.80;99.90
3017;DHT22;1518;52.408;13.060;2022-10-26T07:46:25;9.80;99.90
3017;DHT22;1518;52.408;13.060;2022-10-26T07:49:13;9.80;99.90
3017;DHT22;1518;52.408;13.060;2022-10-26T07:52:05;9.80;99.90
3017;DHT22;1518;52.408;13.060;2022-10-26T07:54:54;9.90;99.90
3017;DHT22;1518;52.408;13.060;2022-10-26T07:57:42;9.90;99.90
3017;DHT22;1518;52.408;13.060;2022-10-26T08:00:30;10.00;99.90
3017;DHT22;1518;52.408;13.060;2022-10-26T08:03:20;10.10;99.90
3017;DHT22;1518;52.408;13.060;2022-10-26T08:06:08;10.10;99.90
3017;DHT22;1518;52.408;13.060;2022-10-26T08:08:56;10.20;99.90
3017;DHT22;1518;52.408;13.060;2022-10-26T08:11:45;10.20;99.90
3017;DHT22;1518;52.408;13.060;2022-10-26T08:14:33;10.30;99.90
3017;DHT22;1518;52.408;13.060;2022-10-26T08:17:21;10.30;99.90
3017;DHT22;1518;52.408;13.060;2022-10-26T08:20:11;10.40;99.90
3017;DHT22;1518;52.408;13.060;2022-10-26T08:22:59;10.40;99.90
3017;DHT22;1518;52.408;13.060;2022-10-26T08:25:47;10.50;99.90
3017;DHT22;1518;52.408;13.060;2022-10-26T08:28:35;10.50;99.90
3017;DHT22;1518;52.408;13.060;2022-10-26T08:31:23;10.60;99.90
3017;DHT22;1518;52.408;13.060;2022-10-26T08:34:11;10.80;99.90
3017;DHT22;1518;52.408;13.060;2022-10-26T08:37:01;10.90;99.90
3017;DHT22;1518;52.408;13.060;2022-10-26T08:39:49;11.00;99.90
3017;DHT22;1518;52.408;13.060;2022-10-26T08:42:44;11.10;99.90
3017;DHT22;1518;52.408;13.060;2022-10-26T08:45:36;11.20;99.90
3017;DHT22;1518;52.408;13.060;2022-10-26T08:48:29;11.20;99.90
3017;DHT22;1518;52.408;13.060;2022-10-26T08:51:22;11.30;99.90
3017;DHT22;1518;52.408;13.060;2022-10-26T08:54:17;11.20;99.90
3017;DHT22;1518;52.408;13.060;2022-10-26T08:57:14;11.50;99.90
3017;DHT22;1518;52.408;13.060;2022-10-26T09:00:05;11.50;99.90
3017;DHT22;1518;52.408;13.060;2022-10-26T09:02:53;11.60;99.90
3017;DHT22;1518;52.408;13.060;2022-10-26T09:05:49;11.70;99.90
3017;DHT22;1518;52.408;13.060;2022-10-26T09:08:49;11.80;99.90
3017;DHT22;1518;52.408;13.060;2022-10-26T09:11:51;12.00;99.90
3017;DHT22;1518;52.408;13.060;2022-10-26T09:14:51;12.00;99.90
3017;DHT22;1518;52.408;13.060;2022-10-26T09:17:49;12.10;99.90
3017;DHT22;1518;52.408;13.060;2022-10-26T09:20:53;12.20;99.90
3017;DHT22;1518;52.408;13.060;2022-10-26T09:23:55;12.30;99.90
3017;DHT22;1518;52.408;13.060;2022-10-26T09:26:53;12.40;99.90
3017;DHT22;1518;52.408;13.060;2022-10-26T09:29:42;12.50;99.90
3017;DHT22;1518;52.408;13.060;2022-10-26T09:32:34;12.80;99.90
3017;DHT22;1518;52.408;13.060;2022-10-26T09:35:25;12.70;99.90
3017;DHT22;1518;52.408;13.060;2022-10-26T09:38:23;12.80;99.90
3017;DHT22;1518;52.408;13.060;2022-10-26T09:41:21;12.80;99.90
3017;DHT22;1518;52.408;13.060;2022-10-26T09:44:23;12.90;99.90
3017;DHT22;1518;52.408;13.060;2022-10-26T09:47:19;13.00;99.90
3017;DHT22;1518;52.408;13.060;2022-10-26T09:50:17;13.00;99.90
3017;DHT22;1518;52.408;13.060;2022-10-26T09:53:06;13.20;99.90
3017;DHT22;1518;52.408;13.060;2022-10-26T09:56:00;13.10;99.90
3017;DHT22;1518;52.408;13.060;2022-10-26T09:58:53;13.20;99.90
3017;DHT22;1518;52.408;13.060;2022-10-26T10:01:46;13.30;99.90
3017;DHT22;1518;52.408;13.060;2022-10-26T10:04:34;13.40;99.90
3017;DHT22;1518;52.408;13.060;2022-10-26T10:07:24;13.40;99.90
3017;DHT22;1518;52.408;13.060;2022-10-26T10:10:16;13.50;99.90
3017;DHT22;1518;52.408;13.060;2022-10-26T10:13:15;13.70;99.90
3017;DHT22;1518;52.408;13.060;2022-10-26T10:16:07;13.70;99.90
3017;DHT22;1518;52.408;13.060;2022-10-26T10:18:59;13.70;99.90
3017;DHT22;1518;52.408;13.060;2022-10-26T10:21:49;13.80;99.90
3017;DHT22;1518;52.408;13.060;2022-10-26T10:24:40;13.90;99.90
3017;DHT22;1518;52.408;13.060;2022-10-26T10:27:29;14.00;99.90
3017;DHT22;1518;52.408;13.060;2022-10-26T10:30:21;14.00;99.90
3017;DHT22;1518;52.408;13.060;2022-10-26T10:33:10;14.10;99.90
3017;DHT22;1518;52.408;13.060;2022-10-26T10:36:01;14.30;99.90
3017;DHT22;1518;52.408;13.060;2022-10-26T10:38:51;14.20;99.90
3017;DHT22;1518;52.408;13.060;2022-10-26T10:41:44;14.40;99.90
3017;DHT22;1518;52.408;13.060;2022-10-26T10:44:32;14.50;99.90
3017;DHT22;1518;52.408;13.060;2022-10-26T10:47:22;14.50;99.90
3017;DHT22;1518;52.408;13.060;2022-10-26T10:50:16;14.60;99.90
3017;DHT22;1518;52.408;13.060;2022-10-26T10:53:15;14.30;99.90
3017;DHT22;1518;52.408;13.060;2022-10-26T10:56:22;14.70;99.90
3017;DHT22;1518;52.408;13.060;2022-10-26T10:59:28;14.80;99.90
3017;DHT22;1518;52.408;13.060;2022-10-26T11:02:48;15.00;99.90
3017;DHT22;1518;52.408;13.060;2022-10-26T11:05:49;15.00;99.90
3017;DHT22;1518;52.408;13.060;2022-10-26T11:08:46;15.10;99.90
3017;DHT22;1518;52.408;13.060;2022-10-26T11:11:39;15.10;99.90
3017;DHT22;1518;52.408;13.060;2022-10-26T11:14:34;15.20;99.90
3017;DHT22;1518;52.408;13.060;2022-10-26T11:17:26;15.20;99.90
3017;DHT22;1518;52.408;13.060;2022-10-26T11:20:20;15.20;99.90
3017;DHT22;1518;52.408;13.060;2022-10-26T11:23:12;15.30;99.90
3017;DHT22;1518;52.408;13.060;2022-10-26T11:26:10;15.30;99.90
3017;DHT22;1518;52.408;13.060;2022-10-26T11:29:02;15.40;99.90
3017;DHT22;1518;52.408;13.060;2022-10-26T11:31:54;15.40;99.90
3017;DHT22;1518;52.408;13.060;2022-10-26T11:34:49;15.40;99.90
3017;DHT22;1518;52.408;13.060;2022-10-26T11:37:44;15.50;99.90
3017;DHT22;1518;52.408;13.060;2022-10-26T11:40:41;15.50;99.90
3017;DHT22;1518;52.408;13.060;2022-10-26T11:43:37;15.60;99.90
3017;DHT22;1518;52.408;13.060;2022-10-26T11:46:29;15.60;99.90
3017;DHT22;1518;52.408;13.060;2022-10-26T11:49:23;15.60;99.90
3017;DHT22;1518;52.408;13.060;2022-10-26T11:52:18;15.70;99.90
3017;DHT22;1518;52.408;13.060;2022-10-26T11:55:09;15.70;99.90
3017;DHT22;1518;52.408;13.060;2022-10-26T11:57:58;15.80;99.90
3017;DHT22;1518;52.408;13.060;2022-10-26T12:00:50;15.80;99.90
3017;DHT22;1518;52.408;13.060;2022-10-26T12:03:43;15.90;99.90
3017;DHT22;1518;52.408;13.060;2022-10-26T12:06:33;15.90;99.90
3017;DHT22;1518;52.408;13.060;2022-10-26T12:09:26;16.00;99.90
3017;DHT22;1518;52.408;13.060;2022-10-26T12:12:25;16.10;99.90
3017;DHT22;1518;52.408;13.060;2022-10-26T12:15:24;16.20;99.90
3017;DHT22;1518;52.408;13.060;2022-10-26T12:18:43;16.30;99.90
3017;DHT22;1518;52.408;13.060;2022-10-26T12:21:49;16.30;99.90
3017;DHT22;1518;52.408;13.060;2022-10-26T12:24:42;16.30;99.90
3017;DHT22;1518;52.408;13.060;2022-10-26T12:27:34;16.40;99.90
3017;DHT22;1518;52.408;13.060;2022-10-26T12:30:35;16.40;99.90
3017;DHT22;1518;52.408;13.060;2022-10-26T12:33:27;16.50;99.90
3017;DHT22;1518;52.408;13.060;2022-10-26T12:36:48;16.60;99.90
3017;DHT22;1518;52.408;13.060;2022-10-26T12:39:38;16.60;99.90
3017;DHT22;1518;52.408;13.060;2022-10-26T12:42:28;16.60;99.90
3017;DHT22;1518;52.408;13.060;2022-10-26T12:45:18;16.70;99.90
3017;DHT22;1518;52.408;13.060;2022-10-26T12:48:21;16.70;99.90
3017;DHT22;1518;52.408;13.060;2022-10-26T12:51:41;16.80;99.90
3017;DHT22;1518;52.408;13.060;2022-10-26T12:54:35;16.80;99.90
3017;DHT22;1518;52.408;13.060;2022-10-26T12:57:33;16.90;99.90
3017;DHT22;1518;52.408;13.060;2022-10-26T13:00:26;17.00;99.90
3017;DHT22;1518;52.408;13.060;2022-10-26T13:03:22;17.10;99.90
3017;DHT22;1518;52.408;13.060;2022-10-26T13:06:21;17.20;99.90
3017;DHT22;1518;52.408;13.060;2022-10-26T13:09:15;17.30;99.90
3017;DHT22;1518;52.408;13.060;2022-10-26T13:12:08;17.40;99.90
3017;DHT22;1518;52.408;13.060;2022-10-26T13:15:00;17.40;99.90
3017;DHT22;1518;52.408;13.060;2022-10-26T13:17:59;17.40;99.90
3017;DHT22;1518;52.408;13.060;2022-10-26T13:20:52;17.40;99.90
3017;DHT22;1518;52.408;13.060;2022-10-26T13:23:47;17.50;99.90
3017;DHT22;1518;52.408;13.060;2022-10-26T13:30:34;17.60;99.90
3017;DHT22;1518;52.408;13.060;2022-10-26T13:33:33;17.70;99.90
3017;DHT22;1518;52.408;13.060;2022-10-26T13:36:28;17.70;99.90
3017;DHT22;1518;52.408;13.060;2022-10-26T13:39:21;17.80;99.90
3017;DHT22;1518;52.408;13.060;2022-10-26T13:42:13;17.90;99.90
3017;DHT22;1518;52.408;13.060;2022-10-26T13:45:06;18.00;99.90
3017;DHT22;1518;52.408;13.060;2022-10-26T13:48:00;18.10;99.90
3017;DHT22;1518;52.408;13.060;2022-10-26T13:50:53;18.30;99.90
3017;DHT22;1518;52.408;13.060;2022-10-26T13:53:50;18.50;99.90
3017;DHT22;1518;52.408;13.060;2022-10-26T13:56:42;18.80;99.90
3017;DHT22;1518;52.408;13.060;2022-10-26T13:59:32;19.20;99.90
3017;DHT22;1518;52.408;13.060;2022-10-26T14:02:25;19.60;99.90
3017;DHT22;1518;52.408;13.060;2022-10-26T14:05:17;19.90;99.90
3017;DHT22;1518;52.408;13.060;2022-10-26T14:08:05;20.20;99.90
3017;DHT22;1518;52.408;13.060;2022-10-26T14:10:56;20.50;99.90
3017;DHT22;1518;52.408;13.060;2022-10-26T14:13:45;20.90;99.90
3017;DHT22;1518;52.408;13.060;2022-10-26T14:16:34;21.20;99.90
3017;DHT22;1518;52.408;13.060;2022-10-26T14:19:26;21.30;99.90
3017;DHT22;1518;52.408;13.060;2022-10-26T14:22:21;21.00;99.90
3017;DHT22;1518;52.408;13.060;2022-10-26T14:25:18;20.50;99.90
3017;DHT22;1518;52.408;13.060;2022-10-26T14:28:23;19.80;99.90
3017;DHT22;1518;52.408;13.060;2022-10-26T14:31:12;19.20;99.90
3017;DHT22;1518;52.408;13.060;2022-10-26T14:34:06;18.60;99.90
3017;DHT22;1518;52.408;13.060;2022-10-26T14:36:56;18.60;99.90
3017;DHT22;1518;52.408;13.060;2022-10-26T14:39:46;18.40;99.90
3017;DHT22;1518;52.408;13.060;2022-10-26T14:42:38;18.20;99.90
3017;DHT22;1518;52.408;13.060;2022-10-26T14:45:29;18.00;99.90
3017;DHT22;1518;52.408;13.060;2022-10-26T14:48:35;18.00;99.90
3017;DHT22;1518;52.408;13.060;2022-10-26T14:51:26;17.90;99.90
3017;DHT22;1518;52.408;13.060;2022-10-26T14:54:19;17.90;99.90
3017;DHT22;1518;52.408;13.060;2022-10-26T14:57:33;17.80;99.90
3017;DHT22;1518;52.408;13.060;2022-10-26T15:00:24;17.80;99.90
3017;DHT22;1518;52.408;13.060;2022-10-26T15:03:15;17.70;99.90
3017;DHT22;1518;52.408;13.060;2022-10-26T15:06:27;17.70;99.90
3017;DHT22;1518;52.408;13.060;2022-10-26T15:09:37;17.60;99.90
3017;DHT22;1518;52.408;13.060;2022-10-26T15:12:29;17.60;99.90
3017;DHT22;1518;52.408;13.060;2022-10-26T15:15:21;17.60;99.90
3017;DHT22;1518;52.408;13.060;2022-10-26T15:18:18;17.50;99.90
3017;DHT22;1518;52.408;13.060;2022-10-26T15:21:20;17.50;99.90
3017;DHT22;1518;52.408;13.060;2022-10-26T15:24:24;17.20;99.90
3017;DHT22;1518;52.408;13.060;2022-10-26T15:27:14;17.20;99.90
3017;DHT22;1518;52.408;13.060;2022-10-26T15:30:16;17.10;99.90
3017;DHT22;1518;52.408;13.060;2022-10-26T15:33:19;17.00;99.90
3017;DHT22;1518;52.408;13.060;2022-10-26T15:36:15;17.00;99.90
3017;DHT22;1518;52.408;13.060;2022-10-26T15:39:04;16.90;99.90
3017;DHT22;1518;52.408;13.060;2022-10-26T15:41:52;16.80;99.90
3017;DHT22;1518;52.408;13.060;2022-10-26T15:44:41;16.70;99.90
3017;DHT22;1518;52.408;13.060;2022-10-26T15:47:32;16.60;99.90
3017;DHT22;1518;52.408;13.060;2022-10-26T15:50:23;16.60;99.90
3017;DHT22;1518;52.408;13.060;2022-10-26T15:53:17;16.50;99.90
3017;DHT22;1518;52.408;13.060;2022-10-26T15:56:11;16.40;99.90
3017;DHT22;1518;52.408;13.060;2022-10-26T15:59:00;16.30;99.90
3017;DHT22;1518;52.408;13.060;2022-10-26T16:01:48;16.30;99.90
3017;DHT22;1518;52.408;13.060;2022-10-26T16:04:38;16.30;99.90
3017;DHT22;1518;52.408;13.060;2022-10-26T16:07:27;16.20;99.90
3017;DHT22;1518;52.408;13.060;2022-10-26T16:10:19;16.20;99.90
3017;DHT22;1518;52.408;13.060;2022-10-26T16:13:11;16.10;99.90
3017;DHT22;1518;52.408;13.060;2022-10-26T16:16:00;16.10;99.90
3017;DHT22;1518;52.408;13.060;2022-10-26T16:18:51;16.10;99.90
3017;DHT22;1518;52.408;13.060;2022-10-26T16:22:00;16.00;99.90
3017;DHT22;1518;52.408;13.060;2022-10-26T16:24:50;16.00;99.90
3017;DHT22;1518;52.408;13.060;2022-10-26T16:27:38;16.00;99.90
3017;DHT22;1518;52.408;13.060;2022-10-26T16:30:28;15.90;99.90
3017;DHT22;1518;52.408;13.060;2022-10-26T16:33:17;15.90;99.90
3017;DHT22;1518;52.408;13.060;2022-10-26T16:36:06;15.90;99.90
3017;DHT22;1518;52.408;13.060;2022-10-26T16:38:54;15.90;99.90
3017;DHT22;1518;52.408;13.060;2022-10-26T16:41:44;15.80;99.90
3017;DHT22;1518;52.408;13.060;2022-10-26T16:44:32;15.80;99.90
3017;DHT22;1518;52.408;13.060;2022-10-26T16:47:20;15.80;99.90
3017;DHT22;1518;52.408;13.060;2022-10-26T16:50:10;15.80;99.90
3017;DHT22;1518;52.408;13.060;2022-10-26T16:52:58;15.80;99.90
3017;DHT22;1518;52.408;13.060;2022-10-26T16:55:46;15.80;99.90
3017;DHT22;1518;52.408;13.060;2022-10-26T16:58:35;15.80;99.90
3017;DHT22;1518;52.408;13.060;2022-10-26T17:01:24;15.80;99.90
3017;DHT22;1518;52.408;13.060;2022-10-26T17:04:12;15.70;99.90
3017;DHT22;1518;52.408;13.060;2022-10-26T17:07:00;15.80;99.90
3017;DHT22;1518;52.408;13.060;2022-10-26T17:09:48;15.70;99.90
3017;DHT22;1518;52.408;13.060;2022-10-26T17:12:36;15.70;99.90
3017;DHT22;1518;52.408;13.060;2022-10-26T17:15:25;15.60;99.90
3017;DHT22;1518;52.408;13.060;2022-10-26T17:18:15;15.60;99.90
3017;DHT22;1518;52.408;13.060;2022-10-26T17:21:03;15.60;99.90
3017;DHT22;1518;52.408;13.060;2022-10-26T17:23:51;15.60;99.90
3017;DHT22;1518;52.408;13.060;2022-10-26T17:26:39;15.60;99.90
3017;DHT22;1518;52.408;13.060;2022-10-26T17:29:27;15.60;99.90
3017;DHT22;1518;52.408;13.060;2022-10-26T17:32:17;15.60;99.90
3017;DHT22;1518;52.408;13.060;2022-10-26T17:35:06;15.60;99.90
3017;DHT22;1518;52.408;13.060;2022-10-26T17:37:54;15.60;99.90
3017;DHT22;1518;52.408;13.060;2022-10-26T17:40:42;15.60;99.90
3017;DHT22;1518;52.408;13.060;2022-10-26T17:43:30;15.50;99.90
3017;DHT22;1518;52.408;13.060;2022-10-26T17:46:20;15.60;99.90
3017;DHT22;1518;52.408;13.060;2022-10-26T17:49:10;15.50;99.90
3017;DHT22;1518;52.408;13.060;2022-10-26T17:51:58;15.50;99.90
3017;DHT22;1518;52.408;13.060;2022-10-26T17:54:46;15.50;99.90
3017;DHT22;1518;52.408;13.060;2022-10-26T17:57:34;15.50;99.90
3017;DHT22;1518;52.408;13.060;2022-10-26T18:00:22;15.50;99.90
3017;DHT22;1518;52.408;13.060;2022-10-26T18:03:10;15.50;99.90
3017;DHT22;1518;52.408;13.060;2022-10-26T18:06:00;15.50;99.90
3017;DHT22;1518;52.408;13.060;2022-10-26T18:08:48;15.40;99.90
3017;DHT22;1518;52.408;13.060;2022-10-26T18:11:36;15.40;99.90
3017;DHT22;1518;52.408;13.060;2022-10-26T18:14:24;15.40;99.90
3017;DHT22;1518;52.408;13.060;2022-10-26T18:17:12;15.40;99.90
3017;DHT22;1518;52.408;13.060;2022-10-26T18:20:01;15.20;99.90
3017;DHT22;1518;52.408;13.060;2022-10-26T18:22:50;15.20;99.90
3017;DHT22;1518;52.408;13.060;2022-10-26T18:25:38;15.30;99.90
3017;DHT22;1518;52.408;13.060;2022-10-26T18:28:26;15.20;99.90
3017;DHT22;1518;52.408;13.060;2022-10-26T18:31:16;15.10;99.90
3017;DHT22;1518;52.408;13.060;2022-10-26T18:34:05;15.00;99.90
3017;DHT22;1518;52.408;13.060;2022-10-26T18:36:53;15.00;99.90